createdAt,value
2022-10-05T00:04:33.714Z,70.10
2022-10-05T00:09:38.350Z,70.20
2022-10-05T00:14:42.136Z,70.30
2022-10-05T00:19:46.601Z,70.40
2022-10-05T00:24:57.163Z,70.60
2022-10-05T00:30:03.590Z,70.60
2022-10-05T00:35:07.911Z,70.60
2022-10-05T00:40:22.222Z,70.70
2022-10-05T00:45:29.157Z,70.90
2022-10-05T00:50:49.207Z,71.00
2022-10-05T00:56:00.562Z,71.00
2022-10-05T01:01:10.143Z,71.10
2022-10-05T01:06:24.015Z,71.30
2022-10-05T01:11:32.734Z,71.30
2022-10-05T01:16:43.986Z,71.50
2022-10-05T01:21:54.078Z,71.50
2022-10-05T01:27:20.082Z,71.20
2022-10-05T01:32:30.958Z,71.40
2022-10-05T01:37:44.480Z,71.40
2022-10-05T01:43:00.176Z,71.60
2022-10-05T01:48:10.682Z,71.40
2022-10-05T01:53:23.355Z,71.50
2022-10-05T01:58:37.778Z,71.60
2022-10-05T02:03:48.345Z,71.70
2022-10-05T02:08:57.310Z,71.50
2022-10-05T02:14:03.945Z,71.30
2022-10-05T02:19:14.939Z,71.60
2022-10-05T02:24:25.292Z,71.60
2022-10-05T02:29:32.032Z,71.20
2022-10-05T02:34:40.631Z,71.10
2022-10-05T02:39:53.867Z,71.00
2022-10-05T02:45:01.663Z,70.90
2022-10-05T02:50:14.479Z,71.50
2022-10-05T02:55:21.231Z,71.70
2022-10-05T03:00:26.618Z,72.70
2022-10-05T03:05:36.491Z,72.00
2022-10-05T03:10:49.222Z,72.40
2022-10-05T03:16:07.993Z,72.40
2022-10-05T03:21:24.322Z,72.70
2022-10-05T03:26:39.684Z,72.70
2022-10-05T03:31:49.829Z,72.90
2022-10-05T03:37:04.734Z,72.70
2022-10-05T03:42:17.412Z,72.80
2022-10-05T03:47:29.699Z,73.00
2022-10-05T03:52:40.501Z,73.20
2022-10-05T03:57:45.758Z,73.70
2022-10-05T04:02:54.162Z,73.60
2022-10-05T04:08:04.830Z,73.50
2022-10-05T04:13:14.520Z,73.30
2022-10-05T04:18:27.157Z,73.50
2022-10-05T04:23:42.254Z,73.40
2022-10-05T04:28:54.753Z,73.60
2022-10-05T04:34:04.010Z,73.50
2022-10-05T04:39:19.927Z,73.80
2022-10-05T04:44:43.514Z,74.00
2022-10-05T04:50:16.584Z,73.80
2022-10-05T04:55:31.707Z,74.60
2022-10-05T05:00:48.044Z,74.40
2022-10-05T05:06:17.045Z,74.40
2022-10-05T05:11:30.419Z,74.30
2022-10-05T05:16:37.581Z,74.60
2022-10-05T05:21:49.547Z,74.70
2022-10-05T05:27:19.415Z,75.00
2022-10-05T05:32:36.139Z,74.80
2022-10-05T05:37:49.428Z,74.40
2022-10-05T05:43:00.694Z,74.80
2022-10-05T05:48:13.682Z,74.90
2022-10-05T05:53:22.306Z,75.00
2022-10-05T05:58:32.896Z,74.90
2022-10-05T06:03:39.739Z,74.80
2022-10-05T06:08:46.308Z,75.00
2022-10-05T06:13:52.235Z,74.90
2022-10-05T06:18:58.646Z,74.80
2022-10-05T06:24:06.728Z,74.60
2022-10-05T06:29:15.489Z,74.90
2022-10-05T06:34:33.468Z,75.40
2022-10-05T06:40:04.896Z,76.30
2022-10-05T06:45:20.457Z,75.30
2022-10-05T06:50:34.462Z,75.90
2022-10-05T06:55:48.797Z,76.10
2022-10-05T07:01:00.127Z,76.30
2022-10-05T07:06:11.977Z,75.80
2022-10-05T07:11:30.360Z,76.50
2022-10-05T07:16:45.455Z,76.30
2022-10-05T07:22:01.058Z,77.40
2022-10-05T07:27:14.223Z,77.40
2022-10-05T07:32:29.680Z,77.00
2022-10-05T07:38:04.738Z,76.80
2022-10-05T07:43:57.533Z,76.90
2022-10-05T07:49:03.808Z,76.90
2022-10-05T07:54:21.355Z,77.20
2022-10-05T07:59:32.422Z,77.20
2022-10-05T08:04:47.084Z,77.30
2022-10-05T08:09:56.098Z,77.90
2022-10-05T08:15:03.695Z,77.00
2022-10-05T08:20:20.616Z,76.90
2022-10-05T08:25:27.971Z,76.90
2022-10-05T08:30:34.280Z,76.40
2022-10-05T08:35:43.997Z,76.30
2022-10-05T08:41:17.054Z,76.10
2022-10-05T08:46:37.064Z,75.70
2022-10-05T08:52:19.423Z,75.10
2022-10-05T08:57:53.444Z,74.60
2022-10-05T09:03:13.719Z,73.10
2022-10-05T09:08:41.655Z,72.50
2022-10-05T09:14:07.929Z,72.50
2022-10-05T09:19:45.400Z,71.80
2022-10-05T09:24:57.352Z,71.60
2022-10-05T09:30:15.927Z,71.00
2022-10-05T09:35:35.326Z,71.10
2022-10-05T09:41:18.742Z,70.90
2022-10-05T09:46:45.457Z,71.00
2022-10-05T09:52:19.509Z,70.00
2022-10-05T09:58:08.355Z,68.80
2022-10-05T10:03:26.473Z,67.60
2022-10-05T10:08:40.762Z,62.30
2022-10-05T10:14:05.789Z,62.50
2022-10-05T10:19:33.432Z,61.10
2022-10-05T10:24:52.167Z,58.00
2022-10-05T10:30:19.121Z,59.30
2022-10-05T10:35:31.497Z,61.20
2022-10-05T10:40:40.533Z,60.90
2022-10-05T10:45:51.926Z,60.00
2022-10-05T10:51:14.779Z,58.70
2022-10-05T10:56:30.696Z,60.00
2022-10-05T11:01:38.373Z,59.80
2022-10-05T11:07:02.808Z,58.40
2022-10-05T11:12:45.637Z,56.70
2022-10-05T11:18:02.985Z,57.10
2022-10-05T11:23:55.682Z,56.80
2022-10-05T11:29:29.145Z,55.20
2022-10-05T11:35:01.009Z,55.70
2022-10-05T11:40:38.518Z,54.80
2022-10-05T11:45:57.323Z,55.10
2022-10-05T11:51:27.893Z,53.80
2022-10-05T11:56:38.457Z,52.80
2022-10-05T12:01:49.151Z,52.00
2022-10-05T12:07:08.832Z,51.20
2022-10-05T12:12:19.035Z,52.00
2022-10-05T12:17:33.518Z,48.90
2022-10-05T12:22:42.776Z,51.20
2022-10-05T12:27:50.350Z,49.60
2022-10-05T12:33:02.705Z,50.10
2022-10-05T12:38:18.263Z,49.10
2022-10-05T12:43:31.802Z,45.90
2022-10-05T12:49:00.822Z,47.50
2022-10-05T12:54:13.613Z,46.70
2022-10-05T12:59:29.611Z,48.00
2022-10-05T13:04:42.452Z,49.70
2022-10-05T13:09:53.735Z,48.90
2022-10-05T13:15:08.676Z,47.10
2022-10-05T13:20:21.560Z,46.20
2022-10-05T13:25:32.219Z,47.40
2022-10-05T13:30:37.994Z,47.40
2022-10-05T13:35:47.911Z,45.00
2022-10-05T13:41:03.787Z,45.40
2022-10-05T13:46:16.198Z,45.00
2022-10-05T13:51:22.075Z,44.60
2022-10-05T13:56:31.718Z,44.30
2022-10-05T14:01:42.566Z,45.00
2022-10-05T14:06:47.161Z,44.80
2022-10-05T14:11:52.580Z,45.40
2022-10-05T14:16:58.785Z,44.40
2022-10-05T14:22:04.242Z,45.10
2022-10-05T14:27:21.981Z,44.60
2022-10-05T14:32:30.838Z,44.20
2022-10-05T14:37:45.468Z,44.80
2022-10-05T14:42:49.129Z,45.00
2022-10-05T14:47:56.232Z,45.20
2022-10-05T14:53:16.745Z,44.80
2022-10-05T14:58:38.623Z,45.70
2022-10-05T15:03:49.809Z,45.80
2022-10-05T15:09:20.370Z,46.30
2022-10-05T15:14:28.194Z,46.60
2022-10-05T15:19:44.846Z,46.70
2022-10-05T15:25:01.711Z,46.90
2022-10-05T15:30:10.641Z,47.10
2022-10-05T15:35:38.324Z,47.60
2022-10-05T15:40:47.371Z,47.40
2022-10-05T15:45:58.429Z,47.90
2022-10-05T15:51:15.476Z,48.20
2022-10-05T15:56:26.842Z,48.10
2022-10-05T16:01:46.916Z,48.50
2022-10-05T16:07:15.550Z,48.50
2022-10-05T16:12:40.880Z,48.80
2022-10-05T16:18:18.646Z,49.20
2022-10-05T16:23:34.270Z,49.30
2022-10-05T16:28:49.859Z,49.60
2022-10-05T16:34:03.553Z,49.80
2022-10-05T16:39:16.106Z,50.40
2022-10-05T16:44:33.813Z,50.80
2022-10-05T16:49:44.440Z,51.20
2022-10-05T16:54:52.573Z,51.50
2022-10-05T17:00:16.337Z,51.80
2022-10-05T17:05:34.824Z,52.30
2022-10-05T17:10:56.979Z,52.80
2022-10-05T17:16:06.739Z,53.10
2022-10-05T17:21:15.383Z,53.50
2022-10-05T17:26:41.943Z,53.80
2022-10-05T17:32:10.525Z,54.00
2022-10-05T17:37:19.418Z,54.40
2022-10-05T17:42:58.297Z,54.40
2022-10-05T17:48:03.774Z,54.90
2022-10-05T17:53:39.747Z,55.60
2022-10-05T17:59:06.882Z,55.90
2022-10-05T18:04:33.635Z,56.40
2022-10-05T18:09:53.571Z,56.80
2022-10-05T18:15:21.247Z,57.40
2022-10-05T18:20:32.644Z,58.10
2022-10-05T18:25:46.096Z,58.50
2022-10-05T18:31:16.494Z,58.50
2022-10-05T18:36:38.058Z,58.80
2022-10-05T18:41:52.893Z,58.80
2022-10-05T18:47:07.160Z,58.90
2022-10-05T18:52:20.286Z,58.90
2022-10-05T18:57:41.465Z,58.90
2022-10-05T19:02:52.274Z,59.00
2022-10-05T19:08:08.740Z,59.00
2022-10-05T19:13:31.951Z,59.20
2022-10-05T19:19:11.057Z,59.30
2022-10-05T19:24:40.756Z,59.30
2022-10-05T19:30:13.647Z,59.40
2022-10-05T19:35:26.659Z,59.70
2022-10-05T19:40:39.819Z,59.80
2022-10-05T19:45:53.526Z,59.70
2022-10-05T19:50:59.248Z,59.90
2022-10-05T19:56:20.179Z,60.20
2022-10-05T20:01:26.137Z,60.30
2022-10-05T20:06:31.030Z,60.60
2022-10-05T20:11:50.627Z,60.40
2022-10-05T20:17:47.123Z,60.50
2022-10-05T20:22:50.472Z,60.60
2022-10-05T20:27:55.944Z,60.60
2022-10-05T20:33:01.533Z,60.40
2022-10-05T20:38:07.861Z,60.20
2022-10-05T20:43:12.481Z,60.20
2022-10-05T20:48:16.727Z,60.40
2022-10-05T20:53:20.054Z,60.70
2022-10-05T20:58:24.985Z,61.00
2022-10-05T21:03:28.550Z,61.10
2022-10-05T21:08:32.037Z,60.90
2022-10-05T21:13:38.578Z,61.10
2022-10-05T21:18:42.328Z,61.20
2022-10-05T21:23:46.194Z,61.50
2022-10-05T21:28:50.962Z,62.10
2022-10-05T21:33:54.485Z,62.60
2022-10-05T21:38:58.022Z,62.40
2022-10-05T21:44:02.650Z,62.40
2022-10-05T21:49:09.783Z,62.30
2022-10-05T21:54:16.277Z,62.70
2022-10-05T21:59:34.131Z,62.50
2022-10-05T22:04:40.578Z,62.70
2022-10-05T22:09:43.974Z,63.00
2022-10-05T22:14:48.764Z,62.80
2022-10-05T22:19:52.580Z,63.50
2022-10-05T22:24:56.852Z,63.30
2022-10-05T22:30:03.111Z,63.80
2022-10-05T22:35:11.360Z,64.00
2022-10-05T22:40:15.164Z,64.60
2022-10-05T22:45:19.943Z,65.10
2022-10-05T22:50:23.602Z,67.10
2022-10-05T22:55:27.229Z,68.70
2022-10-05T23:00:56.387Z,68.90
2022-10-05T23:05:58.343Z,68.90
2022-10-05T23:11:03.105Z,68.90
2022-10-05T23:16:09.192Z,68.60
2022-10-05T23:21:12.711Z,68.30
2022-10-05T23:26:17.128Z,67.90
2022-10-05T23:31:23.525Z,67.60
2022-10-05T23:36:31.363Z,67.40
2022-10-05T23:41:34.687Z,67.20
2022-10-05T23:46:39.374Z,67.70
2022-10-05T23:51:44.904Z,65.80
2022-10-05T23:56:48.345Z,65.20
